createdAt,value
2017-11-24T00:04:35.172Z,4.20
2017-11-24T00:09:37.851Z,4.57
2017-11-24T00:14:41.216Z,4.50
2017-11-24T00:19:43.898Z,4.20
2017-11-24T00:24:47.210Z,4.53
2017-11-24T00:29:49.862Z,4.80
2017-11-24T00:34:53.984Z,4.37
2017-11-24T00:39:56.777Z,5.10
2017-11-24T00:45:00.851Z,4.87
2017-11-24T00:50:03.441Z,4.83
2017-11-24T00:55:07.896Z,5.63
2017-11-24T01:00:10.590Z,5.20
2017-11-24T01:05:13.498Z,4.53
2017-11-24T01:10:16.187Z,4.77
2017-11-24T01:15:21.228Z,5.20
2017-11-24T01:20:24.659Z,4.90
2017-11-24T01:25:28.528Z,4.90
2017-11-24T01:30:31.145Z,5.33
2017-11-24T01:35:33.927Z,5.10
2017-11-24T01:40:36.551Z,5.47
2017-11-24T01:45:40.734Z,5.50
2017-11-24T01:50:43.348Z,5.90
2017-11-24T01:55:45.997Z,6.03
2017-11-24T02:00:48.634Z,6.07
2017-11-24T02:05:52.092Z,5.63
2017-11-24T02:10:54.725Z,6.60
2017-11-24T02:15:58.662Z,6.40
2017-11-24T02:21:02.056Z,6.13
2017-11-24T02:26:04.743Z,6.20
2017-11-24T02:31:07.362Z,6.90
2017-11-24T02:36:10.033Z,6.97
2017-11-24T02:41:12.665Z,7.50
2017-11-24T02:46:17.016Z,6.87
2017-11-24T02:51:20.407Z,7.03
2017-11-24T02:56:23.213Z,7.17
2017-11-24T03:01:25.835Z,8.17
2017-11-24T03:06:30.079Z,7.43
2017-11-24T03:11:32.700Z,7.00
2017-11-24T03:16:35.935Z,7.47
2017-11-24T03:21:38.561Z,7.50
2017-11-24T03:26:43.930Z,7.60
2017-11-24T03:31:47.308Z,7.13
2017-11-24T03:36:50.185Z,8.20
2017-11-24T03:41:52.787Z,7.83
2017-11-24T03:46:56.165Z,8.60
2017-11-24T03:51:59.559Z,8.70
2017-11-24T03:57:04.548Z,8.23
2017-11-24T04:02:07.922Z,8.47
2017-11-24T04:07:10.697Z,8.50
2017-11-24T04:12:13.348Z,8.47
2017-11-24T04:17:16.908Z,8.70
2017-11-24T04:22:19.552Z,8.63
2017-11-24T04:27:22.820Z,8.73
2017-11-24T04:32:25.445Z,8.90
2017-11-24T04:37:29.017Z,7.90
2017-11-24T04:42:32.485Z,8.97
2017-11-24T04:47:35.752Z,8.50
2017-11-24T04:52:39.175Z,8.33
2017-11-24T04:57:41.796Z,8.87
2017-11-24T05:02:44.414Z,8.60
2017-11-24T05:07:47.875Z,9.30
2017-11-24T05:12:51.279Z,9.43
2017-11-24T05:17:54.135Z,8.47
2017-11-24T05:22:56.897Z,9.17
2017-11-24T05:28:00.328Z,8.77
2017-11-24T05:33:03.711Z,9.20
2017-11-24T05:38:06.365Z,9.57
2017-11-24T05:43:08.984Z,9.87
2017-11-24T05:48:12.163Z,9.97
2017-11-24T05:53:14.762Z,9.13
2017-11-24T05:58:18.356Z,9.43
2017-11-24T06:03:21.752Z,10.10
2017-11-24T06:08:24.439Z,9.50
2017-11-24T06:13:27.068Z,9.60
2017-11-24T06:18:30.788Z,9.40
2017-11-24T06:23:33.408Z,8.93
2017-11-24T06:28:36.906Z,9.70
2017-11-24T06:33:40.299Z,9.70
2017-11-24T06:38:43.981Z,8.67
2017-11-24T06:43:46.591Z,9.40
2017-11-24T06:48:49.187Z,8.90
2017-11-24T06:53:51.807Z,9.20
2017-11-24T06:58:54.673Z,9.27
2017-11-24T07:03:57.338Z,9.37
2017-11-24T07:09:00.368Z,10.87
2017-11-24T07:14:03.964Z,9.67
2017-11-24T07:19:07.527Z,10.03
2017-11-24T07:24:10.172Z,8.93
2017-11-24T07:29:13.763Z,10.10
2017-11-24T07:34:16.425Z,9.80
2017-11-24T07:39:20.836Z,8.40
2017-11-24T07:44:23.439Z,8.93
2017-11-24T07:49:26.504Z,9.03
2017-11-24T07:54:29.093Z,9.27
2017-11-24T07:59:32.265Z,8.33
2017-11-24T08:04:34.998Z,8.33
2017-11-24T08:09:39.325Z,8.47
2017-11-24T08:14:42.725Z,8.37
2017-11-24T08:19:45.501Z,8.07
2017-11-24T08:24:48.128Z,8.37
2017-11-24T08:29:51.596Z,8.33
2017-11-24T08:34:54.230Z,8.40
2017-11-24T08:39:57.088Z,8.00
2017-11-24T08:44:59.697Z,8.00
2017-11-24T08:50:03.075Z,7.90
2017-11-24T08:55:06.454Z,7.40
2017-11-24T09:00:09.325Z,6.60
2017-11-24T09:05:11.919Z,6.87
2017-11-24T09:10:15.192Z,6.97
2017-11-24T09:15:17.806Z,13.13
2017-11-24T09:20:22.036Z,6.87
2017-11-24T09:25:25.419Z,6.40
2017-11-24T09:30:28.193Z,6.50
2017-11-24T09:35:30.823Z,6.47
2017-11-24T09:40:33.982Z,7.80
2017-11-24T09:45:37.384Z,6.70
2017-11-24T09:50:41.411Z,6.10
2017-11-24T09:55:44.011Z,8.93
2017-11-24T10:00:47.826Z,5.97
2017-11-24T10:05:50.455Z,6.20
2017-11-24T10:10:53.117Z,5.53
2017-11-24T10:15:55.720Z,6.30
2017-11-24T10:21:04.299Z,5.53
2017-11-24T10:26:06.928Z,6.10
2017-11-24T10:31:09.778Z,6.10
2017-11-24T10:36:13.159Z,6.10
2017-11-24T10:41:16.250Z,6.37
2017-11-24T10:46:18.876Z,6.17
2017-11-24T10:51:21.859Z,5.57
2017-11-24T10:56:24.488Z,5.60
2017-11-24T11:01:27.874Z,4.90
2017-11-24T11:06:30.481Z,4.77
2017-11-24T11:11:33.245Z,4.80
2017-11-24T11:16:35.864Z,5.03
2017-11-24T11:21:38.629Z,5.33
2017-11-24T11:26:42.016Z,5.40
2017-11-24T11:31:44.756Z,5.53
2017-11-24T11:36:47.393Z,4.80
2017-11-24T11:41:50.265Z,5.40
2017-11-24T11:46:52.894Z,5.50
2017-11-24T11:51:56.259Z,4.70
2017-11-24T11:56:59.667Z,5.30
2017-11-24T12:02:02.734Z,5.17
2017-11-24T12:07:05.363Z,5.03
2017-11-24T12:12:08.826Z,4.90
2017-11-24T12:17:11.436Z,4.63
2017-11-24T12:22:15.016Z,5.40
2017-11-24T12:27:18.408Z,4.80
2017-11-24T12:32:21.462Z,5.10
2017-11-24T12:37:24.852Z,4.67
2017-11-24T12:42:28.612Z,5.30
2017-11-24T12:47:31.252Z,5.20
2017-11-24T12:52:34.342Z,5.60
2017-11-24T12:57:36.980Z,7.17
2017-11-24T13:02:39.834Z,6.10
2017-11-24T13:07:42.491Z,5.33
2017-11-24T13:12:46.460Z,4.87
2017-11-24T13:17:49.109Z,5.80
2017-11-24T13:22:52.147Z,5.90
2017-11-24T13:27:55.548Z,5.83
2017-11-24T13:32:59.094Z,6.17
2017-11-24T13:38:01.789Z,5.77
2017-11-24T13:43:04.561Z,5.67
2017-11-24T13:48:07.188Z,5.93
2017-11-24T13:53:10.824Z,6.43
2017-11-24T13:58:13.454Z,6.27
2017-11-24T14:03:16.221Z,6.57
2017-11-24T14:08:18.866Z,6.20
2017-11-24T14:13:21.636Z,6.20
2017-11-24T14:18:24.269Z,6.37
2017-11-24T14:23:27.219Z,6.50
2017-11-24T14:28:29.811Z,6.20
2017-11-24T14:33:33.948Z,6.07
2017-11-24T14:38:37.361Z,5.90
2017-11-24T14:43:41.401Z,6.00
2017-11-24T14:48:44.019Z,6.20
2017-11-24T14:53:47.306Z,6.77
2017-11-24T14:58:50.725Z,6.13
2017-11-24T15:03:54.554Z,6.10
2017-11-24T15:08:57.954Z,6.30
2017-11-24T15:14:01.914Z,6.80
2017-11-24T15:19:04.549Z,6.13
2017-11-24T15:24:07.384Z,5.30
2017-11-24T15:29:10.787Z,5.70
2017-11-24T15:34:13.952Z,6.53
2017-11-24T15:39:16.592Z,6.17
2017-11-24T15:44:19.245Z,6.57
2017-11-24T15:49:21.875Z,6.23
2017-11-24T15:54:25.451Z,6.13
2017-11-24T15:59:28.079Z,6.23
2017-11-24T16:04:31.641Z,6.20
2017-11-24T16:09:34.249Z,6.10
2017-11-24T16:14:38.601Z,6.97
2017-11-24T16:19:42.014Z,6.23
2017-11-24T16:24:47.128Z,6.97
2017-11-24T16:29:49.831Z,6.03
2017-11-24T16:34:52.970Z,7.37
2017-11-24T16:39:56.398Z,6.83
2017-11-24T16:45:00.624Z,8.27
2017-11-24T16:50:04.042Z,8.07
2017-11-24T16:55:07.993Z,8.13
2017-11-24T17:00:10.691Z,7.67
2017-11-24T17:05:14.131Z,6.13
2017-11-24T17:10:16.773Z,4.30
2017-11-24T17:15:19.737Z,3.00
2017-11-24T17:20:22.369Z,1.53
2017-11-24T17:25:25.729Z,1.40
2017-11-24T17:30:29.120Z,2.13
2017-11-24T17:35:31.919Z,1.60
2017-11-24T17:40:34.552Z,1.80
2017-11-24T17:45:37.225Z,1.20
2017-11-24T17:50:39.875Z,1.30
2017-11-24T17:55:43.473Z,1.53
2017-11-24T18:00:46.087Z,1.40
2017-11-24T18:05:48.952Z,2.80
2017-11-24T18:10:52.348Z,1.70
2017-11-24T18:15:55.566Z,1.70
2017-11-24T18:20:58.221Z,1.70
2017-11-24T18:26:01.720Z,21.13
2017-11-24T18:31:04.379Z,1.63
2017-11-24T18:36:07.703Z,1.83
2017-11-24T18:41:10.352Z,1.90
2017-11-24T18:46:13.976Z,2.20
2017-11-24T18:51:16.626Z,2.40
2017-11-24T18:56:20.183Z,3.00
2017-11-24T19:01:22.814Z,2.77
2017-11-24T19:06:25.456Z,3.27
2017-11-24T19:11:28.853Z,3.33
2017-11-24T19:16:31.607Z,3.97
2017-11-24T19:21:34.246Z,5.13
2017-11-24T19:26:37.125Z,4.00
2017-11-24T19:31:39.770Z,4.07
2017-11-24T19:36:44.018Z,3.97
2017-11-24T19:41:47.467Z,3.53
2017-11-24T19:46:50.823Z,4.50
2017-11-24T19:51:53.443Z,2.60
2017-11-24T19:56:57.597Z,2.80
2017-11-24T20:02:00.222Z,5.33
2017-11-24T20:07:03.581Z,5.30
2017-11-24T20:12:06.211Z,2.93
2017-11-24T20:17:09.348Z,2.70
2017-11-24T20:22:11.957Z,2.10
2017-11-24T20:27:15.417Z,2.03
2017-11-24T20:32:18.954Z,2.60
2017-11-24T20:37:23.010Z,3.33
2017-11-24T20:42:25.667Z,2.80
2017-11-24T20:47:30.007Z,2.60
2017-11-24T20:52:33.436Z,3.17
2017-11-24T20:57:36.974Z,2.60
2017-11-24T21:02:39.588Z,2.57
2017-11-24T21:07:42.348Z,2.40
2017-11-24T21:12:45.809Z,2.40
2017-11-24T21:17:50.125Z,2.80
2017-11-24T21:22:53.665Z,2.60
2017-11-24T21:27:57.469Z,2.30
2017-11-24T21:33:01.550Z,3.10
2017-11-24T21:38:06.067Z,3.10
2017-11-24T21:43:09.378Z,3.20
2017-11-24T21:48:13.794Z,4.60
2017-11-24T21:53:17.445Z,4.63
2017-11-24T21:58:22.281Z,5.30
2017-11-24T22:03:26.594Z,3.27
2017-11-24T22:08:31.044Z,3.37
2017-11-24T22:13:33.954Z,4.13
2017-11-24T22:18:37.758Z,4.27
2017-11-24T22:23:40.425Z,4.47
2017-11-24T22:28:43.527Z,4.40
2017-11-24T22:33:46.292Z,5.00
2017-11-24T22:38:49.894Z,5.70
2017-11-24T22:43:53.312Z,6.80
2017-11-24T22:48:56.956Z,6.80
2017-11-24T22:53:59.682Z,6.70
2017-11-24T22:59:03.186Z,6.57
2017-11-24T23:04:05.860Z,6.80
2017-11-24T23:09:09.575Z,6.33
2017-11-24T23:14:12.211Z,6.73
2017-11-24T23:19:16.344Z,6.70
2017-11-24T23:24:18.958Z,6.47
2017-11-24T23:29:22.533Z,8.27
2017-11-24T23:34:25.933Z,6.97
2017-11-24T23:39:29.006Z,5.63
2017-11-24T23:44:31.593Z,6.00
2017-11-24T23:49:34.948Z,6.40
2017-11-24T23:54:37.575Z,6.33
2017-11-24T23:59:41.828Z,5.73
